Airfield :
LOGIN :

Register | Disclaimer

   EN    FR    IT 

 










Legend :    VFR   Marginal VFR   IFR   Intensive IFR   Very Intensive IFR
Visi :
Ceiling :
>= 8 km
>= 3000ft
5 to 8 km
1000 to 3000 ft
1500m to 5 km
500 to 1000 ft
800 to 1500m
200 to 500 ft
< 800m
< 200 ft
Symbols :   Thunderstorms  Fog  Heavy snow  Heavy precipitations  Wind > 20 kt
SIGMETs :     Misc.  Thunderstorms  Icing  Turbulence  Mountain Waves  Volcanic Ashes






- Airport Elevation : 266 ft
- IATA code : NCL


EGNT - Newcastle

CURRENT METAR :
  • 231120Z 26016KT 9999 FEW010 04/03 Q1007

EXPIRED METARs :
  • 231050Z 27013KT 9999 VCSH FEW010 SCT025 04/03 Q1007
  • 231020Z 27014KT 9999 FEW010 SCT034 04/04 Q1006
  • 230950Z 27010KT 9999 VCSH FEW010 SCT034 03/03 Q1006
  • 230920Z 26011KT 9999 -RA FEW010 BKN034 03/03 Q1005
  • 230850Z 26011KT 9999 -RA FEW010 BKN034 03/03 Q1005
  • 230820Z 27009KT 9999 -RA FEW010 BKN040 03/03 Q1004

TAF TAF EGNT
Valid from the 23 at 06:00 until the 24 at 06:00 UTC


230503Z 2306/2406 22004KT 9999 SCT030
BECMG 2306/2309 28014KT
TEMPO 2306/2309 6000 RA BKN010
TEMPO 2309/2318 29018G28KT
PROB30
TEMPO 2309/2312 6000 SHRA
BECMG 2318/2321 27004KT
BECMG 2403/2406 16010KT 8000 -RA FEW004 BKN020
PROB30
TEMPO 2403/2406 4000 RASN BKN004
ATIS : +44 191 214 3400



MET'MAP, your aeronautical weather chart ! - Copyright ORBIFLY December 2007 - Disclaimer

ORBIFLY MET'MAP TEAM :

Programming & Development : Alexandra Zaïnal
Concept & original design : Baudouin d'Aumeries
Assistance for programming : Marc-Olivier Méhu
Technical & hardware support : Manuel Goepfert

Contact : metmap@orbifly.com




SOURCES & CREDITS :

   NOAA